createdAt,value
2019-04-21T00:01:12.490Z,4.22
2019-04-21T00:03:23.566Z,3.60
2019-04-21T00:05:41.163Z,3.30
2019-04-21T00:07:51.073Z,3.42
2019-04-21T00:10:02.602Z,3.40
2019-04-21T00:12:02.462Z,3.85
2019-04-21T00:14:01.921Z,3.50
2019-04-21T00:16:00.333Z,3.40
2019-04-21T00:18:16.166Z,3.70
2019-04-21T00:20:31.051Z,4.10
2019-04-21T00:22:41.277Z,3.77
2019-04-21T00:24:51.888Z,3.60
2019-04-21T00:27:01.957Z,3.22
2019-04-21T00:29:21.255Z,3.80
2019-04-21T00:31:16.996Z,3.70
2019-04-21T00:33:12.104Z,3.45
2019-04-21T00:35:17.598Z,3.52
2019-04-21T00:37:31.832Z,3.52
2019-04-21T00:41:55.868Z,3.37
2019-04-21T00:43:53.186Z,3.87
2019-04-21T00:45:58.858Z,3.85
2019-04-21T00:48:16.907Z,3.62
2019-04-21T00:50:17.721Z,3.52
2019-04-21T00:52:53.399Z,3.72
2019-04-21T00:55:01.734Z,3.00
2019-04-21T00:57:05.749Z,3.37
2019-04-21T00:59:10.105Z,3.62
2019-04-21T01:01:16.208Z,3.87
2019-04-21T01:03:20.525Z,3.55
2019-04-21T01:05:27.168Z,3.62
2019-04-21T01:07:37.138Z,3.50
2019-04-21T01:09:34.354Z,3.25
2019-04-21T01:11:49.558Z,3.15
2019-04-21T01:13:58.081Z,3.75
2019-04-21T01:16:07.270Z,3.42
2019-04-21T01:18:12.325Z,3.60
2019-04-21T01:20:09.664Z,3.62
2019-04-21T01:22:01.575Z,3.27
2019-04-21T01:24:13.376Z,3.52
2019-04-21T01:26:25.333Z,3.30
2019-04-21T01:28:41.286Z,3.12
2019-04-21T01:30:50.229Z,3.27
2019-04-21T01:32:53.317Z,3.67
2019-04-21T01:35:02.767Z,3.40
2019-04-21T01:37:04.608Z,3.42
2019-04-21T01:39:35.232Z,4.05
2019-04-21T01:41:28.161Z,3.62
2019-04-21T01:43:27.659Z,3.52
2019-04-21T01:45:33.431Z,3.20
2019-04-21T01:47:44.915Z,3.72
2019-04-21T01:49:37.052Z,3.20
2019-04-21T01:52:08.809Z,3.98
2019-04-21T01:54:28.549Z,3.27
2019-04-21T01:56:57.328Z,3.40
2019-04-21T01:58:51.749Z,3.85
2019-04-21T02:01:07.257Z,3.40
2019-04-21T02:03:34.455Z,3.52
2019-04-21T02:05:31.096Z,3.40
2019-04-21T02:07:33.953Z,4.08
2019-04-21T02:10:02.018Z,3.40
2019-04-21T02:11:53.388Z,3.70
2019-04-21T02:13:58.939Z,3.25
2019-04-21T02:16:02.259Z,3.17
2019-04-21T02:18:06.656Z,3.80
2019-04-21T02:20:06.975Z,3.30
2019-04-21T02:22:19.273Z,3.67
2019-04-21T02:24:34.940Z,3.65
2019-04-21T02:26:37.713Z,3.37
2019-04-21T02:31:07.934Z,3.47
2019-04-21T02:33:34.468Z,3.30
2019-04-21T02:41:45.647Z,3.20
2019-04-21T02:43:42.636Z,2.95
2019-04-21T02:45:47.892Z,3.52
2019-04-21T02:47:57.245Z,4.87
2019-04-21T02:52:14.306Z,3.45
2019-04-21T02:56:29.132Z,3.22
2019-04-21T02:58:34.427Z,3.58
2019-04-21T03:00:57.236Z,3.30
2019-04-21T03:03:15.977Z,3.17
2019-04-21T03:07:44.299Z,3.22
2019-04-21T03:09:46.204Z,3.12
2019-04-21T03:12:05.249Z,3.20
2019-04-21T03:14:13.624Z,3.27
2019-04-21T03:18:22.592Z,3.50
2019-04-21T03:20:23.674Z,3.40
2019-04-21T03:22:24.562Z,3.58
2019-04-21T03:24:53.905Z,3.42
2019-04-21T03:26:48.715Z,3.25
2019-04-21T03:29:05.815Z,3.10
2019-04-21T03:37:35.380Z,3.33
2019-04-21T03:41:52.187Z,3.60
2019-04-21T03:43:44.659Z,3.52
2019-04-21T03:45:46.644Z,2.95
2019-04-21T03:47:53.114Z,3.08
2019-04-21T03:50:08.745Z,3.60
2019-04-21T03:52:11.799Z,3.30
2019-04-21T03:54:13.736Z,3.20
2019-04-21T03:56:42.397Z,3.67
2019-04-21T03:58:34.706Z,3.12
2019-04-21T04:01:00.401Z,3.10
2019-04-21T04:03:46.023Z,3.00
2019-04-21T04:05:59.620Z,3.40
2019-04-21T04:08:22.931Z,2.95
2019-04-21T04:12:13.376Z,3.20
2019-04-21T04:14:26.626Z,3.02
2019-04-21T04:16:26.944Z,3.10
2019-04-21T04:22:56.442Z,3.33
2019-04-21T04:27:11.087Z,3.12
2019-04-21T04:29:10.841Z,2.77
2019-04-21T04:31:25.481Z,3.10
2019-04-21T04:33:34.421Z,3.25
2019-04-21T04:35:38.405Z,3.27
2019-04-21T04:37:36.266Z,3.15
2019-04-21T04:42:29.938Z,3.15
2019-04-21T04:44:39.376Z,3.00
2019-04-21T04:46:37.679Z,3.17
2019-04-21T04:50:51.484Z,3.15
2019-04-21T04:55:03.476Z,3.00
2019-04-21T05:03:40.184Z,2.75
2019-04-21T05:05:43.988Z,3.35
2019-04-21T05:07:52.526Z,3.25
2019-04-21T05:09:52.361Z,3.10
2019-04-21T05:11:50.027Z,3.45
2019-04-21T05:16:09.841Z,3.35
2019-04-21T05:18:13.380Z,3.33
2019-04-21T05:20:17.120Z,3.55
2019-04-21T05:22:22.277Z,3.25
2019-04-21T05:24:23.030Z,3.40
2019-04-21T05:26:27.243Z,3.60
2019-04-21T05:28:32.948Z,3.08
2019-04-21T05:31:09.979Z,2.90
2019-04-21T05:33:27.572Z,3.25
2019-04-21T05:35:49.275Z,3.40
2019-04-21T05:37:59.882Z,3.20
2019-04-21T05:40:10.489Z,3.45
2019-04-21T05:42:09.263Z,3.42
2019-04-21T05:44:37.966Z,2.85
2019-04-21T05:46:42.191Z,3.22
2019-04-21T05:48:48.393Z,3.22
2019-04-21T05:50:53.830Z,3.10
2019-04-21T05:52:53.614Z,3.05
2019-04-21T05:55:11.006Z,3.12
2019-04-21T05:57:18.874Z,3.27
2019-04-21T05:59:20.118Z,3.05
2019-04-21T06:01:33.413Z,3.33
2019-04-21T06:03:44.834Z,3.52
2019-04-21T06:05:55.654Z,3.62
2019-04-21T06:07:53.761Z,3.42
2019-04-21T06:09:59.624Z,3.42
2019-04-21T06:12:08.720Z,3.35
2019-04-21T06:14:14.517Z,3.62
2019-04-21T06:16:43.133Z,3.42
2019-04-21T06:18:37.448Z,3.67
2019-04-21T06:20:37.049Z,3.52
2019-04-21T06:22:49.163Z,3.70
2019-04-21T06:25:15.612Z,3.83
2019-04-21T06:29:03.009Z,4.00
2019-04-21T06:33:19.658Z,3.70
2019-04-21T06:36:21.482Z,4.15
2019-04-21T06:38:05.804Z,3.80
2019-04-21T06:42:16.241Z,4.20
2019-04-21T06:44:24.065Z,3.83
2019-04-21T06:46:42.012Z,4.00
2019-04-21T06:48:40.952Z,4.03
2019-04-21T06:50:51.434Z,3.92
2019-04-21T06:53:01.076Z,4.25
2019-04-21T06:55:02.573Z,4.08
2019-04-21T06:57:07.374Z,3.95
2019-04-21T06:59:21.137Z,4.53
2019-04-21T07:01:15.832Z,3.77
2019-04-21T07:05:33.575Z,4.72
2019-04-21T07:07:35.380Z,4.58
2019-04-21T07:09:48.262Z,4.75
2019-04-21T07:11:53.857Z,4.20
2019-04-21T07:14:05.756Z,3.95
2019-04-21T07:16:06.000Z,4.25
2019-04-21T07:18:17.837Z,4.05
2019-04-21T07:20:18.838Z,4.62
2019-04-21T07:22:33.734Z,4.03
2019-04-21T07:24:33.883Z,4.30
2019-04-21T07:26:40.780Z,4.70
2019-04-21T07:28:51.281Z,4.50
2019-04-21T07:30:59.445Z,4.65
2019-04-21T07:33:07.759Z,6.60
2019-04-21T07:37:10.283Z,4.62
2019-04-21T07:39:18.477Z,5.35
2019-04-21T07:41:22.739Z,5.15
2019-04-21T07:43:24.578Z,5.37
2019-04-21T07:45:30.223Z,4.95
2019-04-21T07:47:53.122Z,5.58
2019-04-21T07:50:07.406Z,5.45
2019-04-21T07:52:28.602Z,5.53
2019-04-21T07:54:42.601Z,6.25
2019-04-21T07:56:24.363Z,5.58
2019-04-21T07:58:53.710Z,6.37
2019-04-21T08:00:59.338Z,5.90
2019-04-21T08:03:05.147Z,6.25
2019-04-21T08:07:21.986Z,6.37
2019-04-21T08:09:19.757Z,5.70
2019-04-21T08:11:28.128Z,6.50
2019-04-21T08:13:41.555Z,6.10
2019-04-21T08:15:49.080Z,6.97
2019-04-21T08:17:47.132Z,6.87
2019-04-21T08:19:53.021Z,6.83
2019-04-21T08:24:07.698Z,7.40
2019-04-21T08:26:17.542Z,7.65
2019-04-21T08:28:26.003Z,7.05
2019-04-21T08:33:05.474Z,7.72
2019-04-21T08:34:55.826Z,8.13
2019-04-21T08:36:51.664Z,9.50
2019-04-21T08:39:03.294Z,7.30
2019-04-21T08:41:08.652Z,7.85
2019-04-21T08:43:21.173Z,7.62
2019-04-21T08:45:21.919Z,7.62
2019-04-21T08:47:25.910Z,7.53
2019-04-21T08:49:36.395Z,8.35
2019-04-21T08:51:37.398Z,8.53
2019-04-21T08:56:19.648Z,8.65
2019-04-21T08:58:35.657Z,7.58
2019-04-21T09:01:08.851Z,9.98
2019-04-21T09:03:28.469Z,8.88
2019-04-21T09:05:29.813Z,9.80
2019-04-21T09:09:47.553Z,9.48
2019-04-21T09:11:55.298Z,8.50
2019-04-21T09:14:00.783Z,8.73
2019-04-21T09:16:06.313Z,8.78
2019-04-21T09:18:10.216Z,10.30
2019-04-21T09:20:43.518Z,10.30
2019-04-21T09:22:24.221Z,10.38
2019-04-21T09:24:33.071Z,10.20
2019-04-21T09:26:34.251Z,11.03
2019-04-21T09:28:39.542Z,10.30
2019-04-21T09:30:43.433Z,9.60
2019-04-21T09:32:42.472Z,11.40
2019-04-21T09:34:49.279Z,10.45
2019-04-21T09:37:10.485Z,11.35
2019-04-21T09:39:09.398Z,10.03
2019-04-21T09:41:15.947Z,10.70
2019-04-21T09:43:26.612Z,10.90
2019-04-21T09:45:24.438Z,11.85
2019-04-21T09:47:38.543Z,12.80
2019-04-21T09:49:39.546Z,11.28
2019-04-21T09:51:45.833Z,12.50
2019-04-21T09:53:57.258Z,12.07
2019-04-21T09:56:03.370Z,13.05
2019-04-21T09:58:15.114Z,11.73
2019-04-21T10:00:19.485Z,11.10
2019-04-21T10:02:32.833Z,11.93
2019-04-21T10:04:26.703Z,12.60
2019-04-21T10:06:32.996Z,14.68
2019-04-21T10:08:38.609Z,15.95
2019-04-21T10:10:44.861Z,13.10
2019-04-21T10:12:50.007Z,13.35
2019-04-21T10:14:55.370Z,13.62
2019-04-21T10:17:21.796Z,14.20
2019-04-21T10:19:27.507Z,15.18
2019-04-21T10:21:33.837Z,14.15
2019-04-21T10:23:39.459Z,15.90
2019-04-21T10:25:44.501Z,17.48
2019-04-21T10:27:49.656Z,14.78
2019-04-21T10:29:55.997Z,15.45
2019-04-21T10:32:01.557Z,14.60
2019-04-21T10:34:07.417Z,15.53
2019-04-21T10:36:13.074Z,13.38
2019-04-21T10:38:28.026Z,14.78
2019-04-21T10:40:27.487Z,14.58
2019-04-21T10:42:33.226Z,15.90
2019-04-21T10:44:38.881Z,16.40
2019-04-21T10:46:46.621Z,13.88
2019-04-21T10:48:50.734Z,13.98
2019-04-21T10:50:56.929Z,14.10
2019-04-21T10:53:20.746Z,15.30
2019-04-21T10:55:44.763Z,14.78
2019-04-21T10:57:34.730Z,15.05
2019-04-21T10:59:46.192Z,16.07
2019-04-21T11:01:47.588Z,15.60
2019-04-21T11:04:27.311Z,13.62
2019-04-21T11:06:28.736Z,13.93
2019-04-21T11:08:37.665Z,17.07
2019-04-21T11:10:41.312Z,13.65
2019-04-21T11:12:47.716Z,14.07
2019-04-21T11:14:53.999Z,14.78
2019-04-21T11:17:00.432Z,13.55
2019-04-21T11:19:06.293Z,14.58
2019-04-21T11:21:11.462Z,14.45
2019-04-21T11:23:19.186Z,13.95
2019-04-21T11:25:24.310Z,13.18
2019-04-21T11:27:30.948Z,13.60
2019-04-21T11:29:37.124Z,14.30
2019-04-21T11:31:43.110Z,12.37
2019-04-21T11:33:49.154Z,13.43
2019-04-21T11:35:55.134Z,14.63
2019-04-21T11:38:09.566Z,14.10
2019-04-21T11:40:13.147Z,13.20
2019-04-21T11:42:21.963Z,12.30
2019-04-21T11:44:27.354Z,14.38
2019-04-21T11:46:32.402Z,15.05
2019-04-21T11:48:37.453Z,14.55
2019-04-21T11:50:43.337Z,13.55
2019-04-21T11:52:49.324Z,13.98
2019-04-21T11:54:55.077Z,14.20
2019-04-21T11:57:03.487Z,13.93
2019-04-21T11:59:07.987Z,12.50
2019-04-21T12:01:13.903Z,13.70
2019-04-21T12:03:20.363Z,13.32
2019-04-21T12:05:26.023Z,13.58
2019-04-21T12:07:31.289Z,12.43
2019-04-21T12:09:37.647Z,13.78
2019-04-21T12:11:43.219Z,13.40
2019-04-21T12:13:48.477Z,12.28
2019-04-21T12:15:54.701Z,14.85
2019-04-21T12:17:59.927Z,12.95
2019-04-21T12:20:06.375Z,14.15
2019-04-21T12:22:21.106Z,12.35
2019-04-21T12:24:19.438Z,13.05
2019-04-21T12:26:24.544Z,12.90
2019-04-21T12:28:30.231Z,10.93
2019-04-21T12:30:35.768Z,11.97
2019-04-21T12:33:12.095Z,15.03
2019-04-21T12:35:17.710Z,11.33
2019-04-21T12:37:22.950Z,12.50
2019-04-21T12:39:28.081Z,12.95
2019-04-21T12:41:33.109Z,12.35
2019-04-21T12:43:38.950Z,11.70
2019-04-21T12:45:44.178Z,14.45
2019-04-21T12:47:50.683Z,16.12
2019-04-21T12:49:56.986Z,12.23
2019-04-21T12:52:02.132Z,10.88
2019-04-21T12:54:07.991Z,10.38
2019-04-21T12:56:13.662Z,11.83
2019-04-21T12:58:19.357Z,11.18
2019-04-21T13:00:24.804Z,12.23
2019-04-21T13:02:29.922Z,10.08
2019-04-21T13:04:35.770Z,11.95
2019-04-21T13:06:41.500Z,11.33
2019-04-21T13:08:54.525Z,12.18
2019-04-21T13:10:53.941Z,10.38
2019-04-21T13:13:01.773Z,11.18
2019-04-21T13:15:06.889Z,10.58
2019-04-21T13:17:13.107Z,11.33
2019-04-21T13:19:18.265Z,10.68
2019-04-21T13:21:24.329Z,11.08
2019-04-21T13:23:29.422Z,10.82
2019-04-21T13:25:34.454Z,10.82
2019-04-21T13:27:40.883Z,10.58
2019-04-21T13:29:46.324Z,10.53
2019-04-21T13:31:52.414Z,10.00
2019-04-21T13:33:57.940Z,10.72
2019-04-21T13:36:04.808Z,10.50
2019-04-21T13:38:19.904Z,10.50
2019-04-21T13:40:55.795Z,10.00
2019-04-21T13:42:48.516Z,11.60
2019-04-21T13:44:50.855Z,12.13
2019-04-21T13:46:56.576Z,11.35
2019-04-21T13:49:03.176Z,10.25
2019-04-21T13:51:09.130Z,11.05
2019-04-21T13:53:14.688Z,10.58
2019-04-21T13:55:21.263Z,10.23
2019-04-21T13:57:26.584Z,10.05
2019-04-21T13:59:31.993Z,9.35
2019-04-21T14:01:37.005Z,9.38
2019-04-21T14:03:44.022Z,10.53
2019-04-21T14:05:50.505Z,9.40
2019-04-21T14:07:56.490Z,9.00
2019-04-21T14:10:06.603Z,10.10
2019-04-21T14:12:09.658Z,9.73
2019-04-21T14:14:14.823Z,9.78
2019-04-21T14:16:20.319Z,11.85
2019-04-21T14:18:27.035Z,9.13
2019-04-21T14:20:33.211Z,9.13
2019-04-21T14:22:38.453Z,9.38
2019-04-21T14:24:45.795Z,8.95
2019-04-21T14:26:52.057Z,9.85
2019-04-21T14:28:57.201Z,9.65
2019-04-21T14:31:02.373Z,9.00
2019-04-21T14:33:07.947Z,9.60
2019-04-21T14:35:14.688Z,8.93
2019-04-21T14:37:20.435Z,9.23
2019-04-21T14:39:26.406Z,8.88
2019-04-21T14:41:32.569Z,8.83
2019-04-21T14:43:38.519Z,8.58
2019-04-21T14:45:52.733Z,9.50
2019-04-21T14:48:29.637Z,9.25
2019-04-21T14:51:06.594Z,8.83
2019-04-21T14:53:31.769Z,9.18
2019-04-21T14:55:39.438Z,8.65
2019-04-21T14:57:45.208Z,9.03
2019-04-21T14:59:51.145Z,9.08
2019-04-21T15:01:56.314Z,9.20
2019-04-21T15:04:01.676Z,10.53
2019-04-21T15:06:07.473Z,10.68
2019-04-21T15:08:13.182Z,8.55
2019-04-21T15:10:23.827Z,9.03
2019-04-21T15:12:25.799Z,10.18
2019-04-21T15:14:31.857Z,10.30
2019-04-21T15:16:36.971Z,8.43
2019-04-21T15:18:42.048Z,9.75
2019-04-21T15:20:50.303Z,8.73
2019-04-21T15:22:54.537Z,8.90
2019-04-21T15:25:00.586Z,9.15
2019-04-21T15:27:07.183Z,8.23
2019-04-21T15:29:12.835Z,8.90
2019-04-21T15:31:24.362Z,8.78
2019-04-21T15:33:24.785Z,8.80
2019-04-21T15:35:30.957Z,10.80
2019-04-21T15:37:36.155Z,9.00
2019-04-21T15:39:42.516Z,9.03
2019-04-21T15:41:48.296Z,9.00
2019-04-21T15:43:54.369Z,8.23
2019-04-21T15:46:00.661Z,8.93
2019-04-21T15:48:05.707Z,8.63
2019-04-21T15:50:15.493Z,8.53
2019-04-21T15:52:17.900Z,8.30
2019-04-21T15:54:23.158Z,8.03
2019-04-21T15:56:35.074Z,7.87
2019-04-21T15:58:54.646Z,8.13
2019-04-21T16:01:10.261Z,9.00
2019-04-21T16:03:16.555Z,7.70
2019-04-21T16:05:22.519Z,7.92
2019-04-21T16:07:29.886Z,7.92
2019-04-21T16:09:37.402Z,8.75
2019-04-21T16:11:42.133Z,7.78
2019-04-21T16:13:47.847Z,8.18
2019-04-21T16:15:52.976Z,7.58
2019-04-21T16:17:59.270Z,8.13
2019-04-21T16:20:06.011Z,9.13
2019-04-21T16:22:12.822Z,7.95
2019-04-21T16:24:18.456Z,7.85
2019-04-21T16:26:24.585Z,8.83
2019-04-21T16:28:31.073Z,8.00
2019-04-21T16:30:36.302Z,8.48
2019-04-21T16:32:44.001Z,7.55
2019-04-21T16:34:56.505Z,9.55
2019-04-21T16:36:56.505Z,10.28
2019-04-21T16:39:01.885Z,7.45
2019-04-21T16:41:11.661Z,10.00
2019-04-21T16:43:16.375Z,7.90
2019-04-21T16:45:22.944Z,8.23
2019-04-21T16:47:28.340Z,7.58
2019-04-21T16:49:35.782Z,7.42
2019-04-21T16:51:42.163Z,7.30
2019-04-21T16:53:58.278Z,10.05
2019-04-21T16:56:21.163Z,7.55
2019-04-21T16:58:38.921Z,12.80
2019-04-21T17:00:57.320Z,8.05
2019-04-21T17:02:54.703Z,7.95
2019-04-21T17:05:00.452Z,7.60
2019-04-21T17:07:07.369Z,7.33
2019-04-21T17:09:12.721Z,8.18
2019-04-21T17:11:25.585Z,7.10
2019-04-21T17:13:24.694Z,7.28
2019-04-21T17:15:50.661Z,6.92
2019-04-21T17:18:00.508Z,7.12
2019-04-21T17:19:47.603Z,8.13
2019-04-21T17:21:52.123Z,7.35
2019-04-21T17:23:58.714Z,7.35
2019-04-21T17:26:05.346Z,6.97
2019-04-21T17:28:12.087Z,6.60
2019-04-21T17:30:17.214Z,7.75
2019-04-21T17:32:27.279Z,7.47
2019-04-21T17:34:31.657Z,7.67
2019-04-21T17:36:37.144Z,9.45
2019-04-21T17:38:42.267Z,7.40
2019-04-21T17:40:47.682Z,7.60
2019-04-21T17:43:01.526Z,6.85
2019-04-21T17:45:01.312Z,7.35
2019-04-21T17:47:20.084Z,7.53
2019-04-21T17:49:14.902Z,8.55
2019-04-21T17:51:55.113Z,6.58
2019-04-21T17:54:08.240Z,6.45
2019-04-21T17:56:31.796Z,6.83
2019-04-21T17:58:32.004Z,8.75
2019-04-21T18:01:05.540Z,7.35
2019-04-21T18:02:54.727Z,6.40
2019-04-21T18:05:03.701Z,7.08
2019-04-21T18:07:27.271Z,7.12
2019-04-21T18:09:37.388Z,6.65
2019-04-21T18:11:42.765Z,8.33
2019-04-21T18:13:26.783Z,7.70
2019-04-21T18:15:49.342Z,6.90
2019-04-21T18:17:40.490Z,6.33
2019-04-21T18:19:49.146Z,6.92
2019-04-21T18:22:03.091Z,6.90
2019-04-21T18:24:15.408Z,6.80
2019-04-21T18:26:27.105Z,6.97
2019-04-21T18:28:22.832Z,6.55
2019-04-21T18:30:46.889Z,6.87
2019-04-21T18:32:54.618Z,7.00
2019-04-21T18:35:13.241Z,6.72
2019-04-21T18:37:40.867Z,7.42
2019-04-21T18:39:57.561Z,6.28
2019-04-21T18:42:31.284Z,6.60
2019-04-21T18:45:22.219Z,6.72
2019-04-21T18:47:25.710Z,7.20
2019-04-21T18:49:43.716Z,6.70
2019-04-21T18:52:06.804Z,6.97
2019-04-21T18:54:29.956Z,6.28
2019-04-21T18:56:18.883Z,7.12
2019-04-21T18:58:22.590Z,6.97
2019-04-21T19:00:31.750Z,6.72
2019-04-21T19:02:40.443Z,6.58
2019-04-21T19:04:42.806Z,7.00
2019-04-21T19:07:02.939Z,6.70
2019-04-21T19:09:12.014Z,6.70
2019-04-21T19:11:24.071Z,6.60
2019-04-21T19:13:41.912Z,6.33
2019-04-21T19:15:32.815Z,7.03
2019-04-21T19:22:00.602Z,6.30
2019-04-21T19:24:16.651Z,6.10
2019-04-21T19:26:14.896Z,6.20
2019-04-21T19:28:13.019Z,6.53
2019-04-21T19:30:30.085Z,6.72
2019-04-21T19:32:28.832Z,6.70
2019-04-21T19:34:24.008Z,6.60
2019-04-21T19:36:25.489Z,6.40
2019-04-21T19:38:45.806Z,7.10
2019-04-21T19:40:50.806Z,6.30
2019-04-21T19:42:55.860Z,6.30
2019-04-21T19:45:06.075Z,6.25
2019-04-21T19:47:19.867Z,6.45
2019-04-21T19:49:27.973Z,7.00
2019-04-21T19:51:26.427Z,6.45
2019-04-21T19:53:29.953Z,6.15
2019-04-21T19:55:27.738Z,6.37
2019-04-21T19:57:32.852Z,5.87
2019-04-21T19:59:44.633Z,6.58
2019-04-21T20:01:47.675Z,6.20
2019-04-21T20:03:57.181Z,6.28
2019-04-21T20:06:10.306Z,6.12
2019-04-21T20:08:22.457Z,6.25
2019-04-21T20:10:35.167Z,6.78
2019-04-21T20:12:39.886Z,5.97
2019-04-21T20:16:50.390Z,6.50
2019-04-21T20:18:48.090Z,6.72
2019-04-21T20:20:48.130Z,5.97
2019-04-21T20:22:54.258Z,5.87
2019-04-21T20:25:07.892Z,6.12
2019-04-21T20:27:15.909Z,6.50
2019-04-21T20:29:32.350Z,6.35
2019-04-21T20:31:37.408Z,5.72
2019-04-21T20:35:59.203Z,6.45
2019-04-21T20:37:57.673Z,6.12
2019-04-21T20:39:54.862Z,6.33
2019-04-21T20:42:11.341Z,6.22
2019-04-21T20:44:19.516Z,6.55
2019-04-21T20:46:24.626Z,5.97
2019-04-21T20:48:29.932Z,6.55
2019-04-21T20:50:33.446Z,6.20
2019-04-21T20:52:50.503Z,5.87
2019-04-21T20:54:48.125Z,5.83
2019-04-21T20:57:02.252Z,5.80
2019-04-21T20:59:10.934Z,5.95
2019-04-21T21:01:25.648Z,6.05
2019-04-21T21:03:24.439Z,5.75
2019-04-21T21:05:22.112Z,5.90
2019-04-21T21:07:53.801Z,5.28
2019-04-21T21:09:42.957Z,6.25
2019-04-21T21:11:56.759Z,5.47
2019-04-21T21:14:05.729Z,5.50
2019-04-21T21:16:10.277Z,6.42
2019-04-21T21:18:15.537Z,5.25
2019-04-21T21:20:18.080Z,5.58
2019-04-21T21:22:14.500Z,5.42
2019-04-21T21:24:36.551Z,5.28
2019-04-21T21:26:38.248Z,5.60
2019-04-21T21:28:39.079Z,5.30
2019-04-21T21:30:43.515Z,5.47
2019-04-21T21:32:56.148Z,5.03
2019-04-21T21:35:03.726Z,5.10
2019-04-21T21:37:21.684Z,5.42
2019-04-21T21:39:18.392Z,6.33
2019-04-21T21:41:16.336Z,5.25
2019-04-21T21:43:19.482Z,5.45
2019-04-21T21:45:24.884Z,5.30
2019-04-21T21:47:49.944Z,5.55
2019-04-21T21:49:49.777Z,5.05
2019-04-21T21:51:55.976Z,5.15
2019-04-21T21:53:48.555Z,5.65
2019-04-21T21:55:53.635Z,4.92
2019-04-21T21:58:03.467Z,5.55
2019-04-21T22:00:08.622Z,4.92
2019-04-21T22:02:24.091Z,5.00
2019-04-21T22:04:26.796Z,5.37
2019-04-21T22:06:38.738Z,5.40
2019-04-21T22:08:36.527Z,5.30
2019-04-21T22:10:43.181Z,5.22
2019-04-21T22:12:55.437Z,5.10
2019-04-21T22:14:55.627Z,4.87
2019-04-21T22:17:20.749Z,5.67
2019-04-21T22:19:22.545Z,5.37
2019-04-21T22:21:34.671Z,5.28
2019-04-21T22:23:34.002Z,5.33
2019-04-21T22:25:33.389Z,5.12
2019-04-21T22:27:34.996Z,5.17
2019-04-21T22:29:44.026Z,4.85
2019-04-21T22:31:48.258Z,4.90
2019-04-21T22:34:00.375Z,4.95
2019-04-21T22:36:09.770Z,4.50
2019-04-21T22:38:19.069Z,4.70
2019-04-21T22:40:25.892Z,4.53
2019-04-21T22:42:27.658Z,4.87
2019-04-21T22:44:28.217Z,4.90
2019-04-21T22:46:33.259Z,5.10
2019-04-21T22:48:40.913Z,4.85
2019-04-21T22:50:46.607Z,4.85
2019-04-21T22:52:56.651Z,4.83
2019-04-21T22:55:03.250Z,5.03
2019-04-21T22:57:12.894Z,4.45
2019-04-21T22:59:18.197Z,4.60
2019-04-21T23:01:25.173Z,4.47
2019-04-21T23:03:28.184Z,4.90
2019-04-21T23:05:36.342Z,4.37
2019-04-21T23:07:44.160Z,4.53
2019-04-21T23:09:47.433Z,4.40
2019-04-21T23:11:56.073Z,4.83
2019-04-21T23:14:04.309Z,4.83
2019-04-21T23:16:07.878Z,4.45
2019-04-21T23:18:30.654Z,4.87
2019-04-21T23:20:38.813Z,4.17
2019-04-21T23:22:52.654Z,4.78
2019-04-21T23:24:54.420Z,4.95
2019-04-21T23:26:54.440Z,4.33
2019-04-21T23:29:07.506Z,4.78
2019-04-21T23:31:12.359Z,4.05
2019-04-21T23:33:06.579Z,4.15
2019-04-21T23:35:18.350Z,4.55
2019-04-21T23:37:18.477Z,4.37
2019-04-21T23:39:25.419Z,4.70
2019-04-21T23:41:36.024Z,4.72
2019-04-21T23:43:35.427Z,4.28
2019-04-21T23:45:44.603Z,4.37
2019-04-21T23:48:01.652Z,4.15
2019-04-21T23:50:05.285Z,4.37
2019-04-21T23:52:07.091Z,4.42
2019-04-21T23:54:09.304Z,4.67
2019-04-21T23:56:23.187Z,4.12
2019-04-21T23:58:25.562Z,4.28
